Lake Suzy, Florida
Current Conditions -  °F | °C
As of 4:53 PM on Monday 26 Jan 2015 (Local Time) from KPGD Reporting Station
Broken Clouds Broken Clouds  
Wind Chill: 19°   Ceiling: 5000
Heat Index: 19°   Visibility: 10mi
Dew Point:   Wind: 20mph
Humidity: 52%   Direction: 290°WNW
Pressure: 29.93"   Gusts: 29mph
Location:  27.0717°N, 81.9802°W
Report Text: KPGD 262153Z 29017G25KT 10SM SCT044 BKN050 19/09 A2993 RMK AO2 PK WND 30029/2140 SLP134 T01890089
Loading
Personal Weather Stations






























Interactive Weather Map New forecast layout! Learn more

10-Day Weather Forecast

Advertisements
Track Severe Weather on mobile